Time;durP1;ratioP1;P1;durP2;ratioP2;P2;SDS_P1;SDS_P2;PMS_P1;PMS_P2;Temp;Humidity;BMP_temperature;BMP_pressure;BME280_temperature;BME280_humidity;BME280_pressure;Samples;Min_cycle;Max_cycle;Signal;HPM_P1;HPM_P2
2021/01/05 00:00:00;;;;;;;50.92;22.80;;;0.40;99.90;;;;;;5005503;28;20107;-74
2021/01/05 00:02:27;;;;;;;47.63;22.77;;;0.50;99.90;;;;;;5034865;28;20069;-74
2021/01/05 00:04:53;;;;;;;53.38;20.40;;;0.40;99.90;;;;;;5043239;28;20075;-73
2021/01/05 00:07:20;;;;;;;50.38;20.98;;;0.40;99.90;;;;;;5035236;28;20593;-75
2021/01/05 00:09:46;;;;;;;49.92;21.63;;;0.40;99.90;;;;;;5026410;28;20506;-74
2021/01/05 00:12:15;;;;;;;51.72;22.73;;;0.40;99.90;;;;;;5043011;28;20059;-75
2021/01/05 00:14:43;;;;;;;46.78;19.35;;;0.50;99.90;;;;;;5042842;28;20424;-74
2021/01/05 00:17:11;;;;;;;51.67;21.35;;;0.40;99.90;;;;;;5043445;28;20048;-75
2021/01/05 00:19:38;;;;;;;53.03;20.48;;;0.40;99.90;;;;;;5044581;28;20490;-75
2021/01/05 00:22:05;;;;;;;44.42;20.75;;;0.50;99.90;;;;;;5040842;28;20072;-75
2021/01/05 00:24:32;;;;;;;40.25;19.13;;;0.50;99.90;;;;;;5039620;28;20071;-75
2021/01/05 00:26:58;;;;;;;44.72;19.30;;;0.60;99.90;;;;;;5015569;28;20087;-75
2021/01/05 00:29:25;;;;;;;54.08;20.27;;;0.60;99.90;;;;;;5037042;28;20107;-75
2021/01/05 00:32:06;;;;;;;50.45;21.45;;;0.60;99.90;;;;;;5017261;28;20175;-75
2021/01/05 00:34:33;;;;;;;53.53;20.17;;;0.60;99.90;;;;;;5042961;28;20551;-75
2021/01/05 00:37:00;;;;;;;51.10;21.13;;;0.60;99.90;;;;;;5033700;28;20132;-74
2021/01/05 00:39:26;;;;;;;42.95;19.45;;;0.50;99.90;;;;;;5044326;28;20063;-75
2021/01/05 00:41:53;;;;;;;53.95;21.40;;;0.50;99.90;;;;;;5038115;28;20046;-75
2021/01/05 00:44:19;;;;;;;45.28;21.20;;;0.40;99.90;;;;;;5040420;28;20140;-75
2021/01/05 00:46:46;;;;;;;65.32;22.23;;;0.50;99.90;;;;;;5045767;28;20134;-75
2021/01/05 00:49:12;;;;;;;47.75;19.85;;;0.50;99.90;;;;;;5048261;28;20082;-75
2021/01/05 00:51:39;;;;;;;48.45;20.25;;;0.40;99.90;;;;;;5043385;28;21023;-75
2021/01/05 00:54:06;;;;;;;67.50;23.13;;;0.40;99.90;;;;;;5022636;28;20053;-74
2021/01/05 00:56:33;;;;;;;56.80;22.27;;;0.50;99.90;;;;;;5032547;28;20053;-74
2021/01/05 00:59:00;;;;;;;41.35;16.70;;;0.50;99.90;;;;;;5010264;28;20053;-74
2021/01/05 01:01:26;;;;;;;58.67;21.20;;;0.60;99.90;;;;;;5009493;28;20145;-74
2021/01/05 01:03:53;;;;;;;55.97;23.02;;;0.40;99.90;;;;;;4996148;28;20042;-76
2021/01/05 01:06:20;;;;;;;57.38;21.40;;;0.40;99.90;;;;;;5030163;28;20057;-75
2021/01/05 01:08:46;;;;;;;59.17;21.70;;;0.40;99.90;;;;;;5017393;28;20061;-75
2021/01/05 01:11:14;;;;;;;32.33;12.63;;;0.40;99.90;;;;;;5042572;28;20060;-74
2021/01/05 01:13:40;;;;;;;63.38;23.60;;;0.50;99.90;;;;;;5041904;28;20127;-74
2021/01/05 01:16:08;;;;;;;55.25;20.00;;;0.40;99.90;;;;;;5008186;28;20279;-75
2021/01/05 01:18:34;;;;;;;49.88;19.95;;;0.40;99.90;;;;;;5009473;28;20510;-75
2021/01/05 01:21:03;;;;;;;53.90;21.67;;;0.40;99.90;;;;;;5025530;28;20080;-74
2021/01/05 01:23:31;;;;;;;53.95;20.73;;;0.50;99.90;;;;;;5005164;28;20093;-75
2021/01/05 01:26:00;;;;;;;50.05;20.67;;;0.40;99.90;;;;;;5008951;28;20091;-75
2021/01/05 01:28:29;;;;;;;57.58;20.38;;;0.30;99.90;;;;;;5009428;28;20350;-75
2021/01/05 01:30:55;;;;;;;49.60;18.52;;;0.40;99.90;;;;;;5025780;28;20199;-74
2021/01/05 01:33:27;;;;;;;43.53;17.38;;;0.40;99.90;;;;;;5009370;28;20088;-75
2021/01/05 01:35:59;;;;;;;45.38;19.58;;;0.40;99.90;;;;;;5013753;28;20079;-75
2021/01/05 01:38:26;;;;;;;39.90;19.73;;;0.40;99.90;;;;;;5039712;28;20517;-75
2021/01/05 01:40:57;;;;;;;49.50;19.45;;;0.50;99.90;;;;;;5029105;28;20044;-75
2021/01/05 01:43:28;;;;;;;47.00;18.20;;;0.40;99.90;;;;;;5028427;28;20065;-74
2021/01/05 01:46:00;;;;;;;42.17;18.77;;;0.50;99.90;;;;;;5028892;28;20132;-74
2021/01/05 01:48:34;;;;;;;45.65;18.63;;;0.40;99.90;;;;;;5028714;28;20053;-74
2021/01/05 01:51:02;;;;;;;32.58;16.27;;;0.40;99.90;;;;;;5037830;28;20418;-74
2021/01/05 01:53:56;;;;;;;38.15;17.73;;;0.40;99.90;;;;;;5018019;28;20671;-74
2021/01/05 01:57:05;;;;;;;42.28;20.48;;;0.40;99.90;;;;;;5038271;28;20262;-74
2021/01/05 01:59:52;;;;;;;45.25;19.88;;;0.40;99.90;;;;;;5026417;28;20294;-74
2021/01/05 02:02:41;;;;;;;42.03;19.45;;;0.30;99.90;;;;;;5040507;28;20083;-74
2021/01/05 02:05:19;;;;;;;44.65;19.38;;;0.50;99.90;;;;;;5015968;28;20052;-75
2021/01/05 02:08:37;;;;;;;45.88;20.15;;;0.50;99.90;;;;;;5037476;28;20049;-75
2021/01/05 02:11:26;;;;;;;48.45;21.65;;;0.60;99.90;;;;;;5043348;28;20036;-74
2021/01/05 02:14:23;;;;;;;56.90;22.20;;;0.60;99.90;;;;;;5027997;28;20065;-75
2021/01/05 02:17:27;;;;;;;53.70;22.55;;;0.50;99.90;;;;;;5040159;28;20049;-73
2021/01/05 02:20:20;;;;;;;53.00;20.77;;;0.60;99.90;;;;;;5034324;28;20106;-73
2021/01/05 02:23:24;;;;;;;59.80;22.27;;;0.60;99.90;;;;;;5013755;28;20049;-73
2021/01/05 02:26:10;;;;;;;52.03;21.52;;;0.50;99.90;;;;;;5025187;28;20686;-73
2021/01/05 02:28:51;;;;;;;59.38;23.52;;;0.60;99.90;;;;;;5027222;28;20102;-73
2021/01/05 02:31:35;;;;;;;52.28;19.63;;;0.60;99.90;;;;;;5043362;28;20041;-73
2021/01/05 02:34:16;;;;;;;51.60;21.35;;;0.60;99.90;;;;;;5028283;28;20090;-74
2021/01/05 02:36:52;;;;;;;49.05;23.08;;;0.50;99.90;;;;;;5022993;28;20077;-73
2021/01/05 02:40:02;;;;;;;54.83;22.95;;;0.60;99.90;;;;;;5043665;28;20688;-75
2021/01/05 02:43:21;;;;;;;52.22;19.27;;;0.60;99.90;;;;;;5056334;28;20053;-74
2021/01/05 02:46:21;;;;;;;44.83;17.63;;;0.50;99.90;;;;;;5023237;28;20056;-73
2021/01/05 02:49:20;;;;;;;50.47;21.00;;;0.50;99.90;;;;;;5038147;28;20037;-74
2021/01/05 02:52:28;;;;;;;55.05;21.90;;;0.50;99.90;;;;;;5023619;28;20133;-73
2021/01/05 02:55:38;;;;;;;55.03;21.95;;;0.60;99.90;;;;;;5027224;28;20394;-75
2021/01/05 02:58:33;;;;;;;55.63;22.20;;;0.70;99.90;;;;;;5060069;28;20060;-73
2021/01/05 03:01:42;;;;;;;47.97;20.35;;;0.70;99.90;;;;;;5024602;28;20080;-73
2021/01/05 03:04:28;;;;;;;52.00;22.20;;;0.60;99.90;;;;;;5026152;28;20187;-75
2021/01/05 03:07:16;;;;;;;64.28;23.50;;;0.60;99.90;;;;;;5032450;28;20068;-73
2021/01/05 03:10:43;;;;;;;56.97;21.13;;;0.60;99.90;;;;;;5044477;28;20106;-73
2021/01/05 03:13:39;;;;;;;71.93;21.92;;;0.70;99.90;;;;;;5044411;28;20049;-73
2021/01/05 03:16:32;;;;;;;64.50;20.20;;;0.70;99.90;;;;;;5044026;28;20186;-73
2021/01/05 03:19:46;;;;;;;71.63;21.15;;;0.50;99.90;;;;;;5044835;28;20052;-73
2021/01/05 03:22:35;;;;;;;67.00;20.27;;;0.60;99.90;;;;;;5043712;28;20515;-73
2021/01/05 03:25:22;;;;;;;83.03;20.73;;;0.50;99.90;;;;;;5042984;28;20136;-74
2021/01/05 03:28:10;;;;;;;67.70;20.42;;;0.50;99.90;;;;;;5060133;28;20069;-73
2021/01/05 03:31:20;;;;;;;59.10;18.23;;;0.50;99.90;;;;;;5024479;28;20041;-73
2021/01/05 03:34:20;;;;;;;64.85;19.00;;;0.40;99.90;;;;;;5007536;28;20055;-73
2021/01/05 03:37:06;;;;;;;77.53;21.27;;;0.40;99.90;;;;;;5034747;28;20546;-73
2021/01/05 03:39:51;;;;;;;61.35;18.23;;;0.50;99.90;;;;;;5032229;28;20041;-73
2021/01/05 03:42:38;;;;;;;59.17;19.65;;;0.40;99.90;;;;;;5017631;28;20072;-73
2021/01/05 03:45:29;;;;;;;64.97;20.15;;;0.40;99.90;;;;;;5043025;28;20045;-73
2021/01/05 03:48:14;;;;;;;72.60;21.25;;;0.50;99.90;;;;;;5029461;28;20041;-74
2021/01/05 03:50:58;;;;;;;59.58;16.45;;;0.50;99.90;;;;;;5029232;28;20057;-74
2021/01/05 03:53:44;;;;;;;74.63;16.10;;;0.40;99.90;;;;;;5036357;28;20488;-73
2021/01/05 03:56:29;;;;;;;77.07;19.27;;;0.40;99.90;;;;;;5043892;28;20903;-74
2021/01/05 03:59:15;;;;;;;70.70;21.00;;;0.30;99.90;;;;;;5059758;28;20190;-74
2021/01/05 04:02:00;;;;;;;62.95;18.25;;;0.40;99.90;;;;;;5044147;28;20057;-74
2021/01/05 04:04:26;;;;;;;65.45;19.25;;;0.40;99.90;;;;;;5042490;28;20095;-75
2021/01/05 04:06:53;;;;;;;68.22;17.25;;;0.30;99.90;;;;;;5033437;28;20118;-75
2021/01/05 04:09:19;;;;;;;61.33;16.83;;;0.30;99.90;;;;;;5043076;28;20513;-74
2021/01/05 04:11:45;;;;;;;59.63;18.98;;;0.30;99.90;;;;;;5026177;28;20053;-74
2021/01/05 04:14:12;;;;;;;68.95;19.95;;;0.30;99.90;;;;;;5043867;28;20052;-74
2021/01/05 04:16:38;;;;;;;62.45;17.98;;;0.40;99.90;;;;;;5046571;28;20212;-74
2021/01/05 04:19:04;;;;;;;63.30;17.60;;;0.40;99.90;;;;;;5046631;28;20049;-74
2021/01/05 04:21:31;;;;;;;68.65;20.73;;;0.30;99.90;;;;;;5045922;28;20068;-74
2021/01/05 04:23:57;;;;;;;87.20;25.20;;;0.40;99.90;;;;;;5048452;28;20082;-74
2021/01/05 04:26:24;;;;;;;70.97;23.08;;;0.40;99.90;;;;;;5046179;28;20057;-74
2021/01/05 04:28:50;;;;;;;74.50;20.92;;;0.40;99.90;;;;;;5046554;28;20055;-74
2021/01/05 04:31:17;;;;;;;90.80;23.50;;;0.40;99.90;;;;;;5047093;28;20049;-74
2021/01/05 04:33:43;;;;;;;57.15;17.05;;;0.40;99.90;;;;;;5046611;28;20136;-74
2021/01/05 04:36:09;;;;;;;91.38;20.52;;;0.40;99.90;;;;;;5025952;28;20183;-74
2021/01/05 04:38:36;;;;;;;80.82;21.63;;;0.30;99.90;;;;;;5041565;28;20060;-74
2021/01/05 04:41:02;;;;;;;88.13;22.02;;;0.30;99.90;;;;;;5046600;28;20076;-74
2021/01/05 04:43:35;;;;;;;112.43;24.40;;;0.30;99.90;;;;;;5046717;28;20113;-74
2021/01/05 04:46:13;;;;;;;84.50;21.70;;;0.40;99.90;;;;;;5028805;28;20138;-74
2021/01/05 04:48:43;;;;;;;74.97;22.45;;;0.40;99.90;;;;;;5046917;28;20139;-74
2021/01/05 04:51:21;;;;;;;87.85;22.42;;;0.40;99.90;;;;;;5052967;28;20037;-74
2021/01/05 04:53:58;;;;;;;109.03;26.50;;;0.40;99.90;;;;;;5048496;28;20155;-75
2021/01/05 04:56:47;;;;;;;110.35;25.50;;;0.30;99.90;;;;;;5029090;28;20052;-75
2021/01/05 04:59:18;;;;;;;96.95;25.05;;;0.40;99.90;;;;;;5042341;28;20049;-75
2021/01/05 05:01:45;;;;;;;91.50;24.90;;;0.50;99.90;;;;;;5041232;28;20076;-74
2021/01/05 05:04:23;;;;;;;99.18;23.15;;;0.50;99.90;;;;;;5040177;28;20510;-74
2021/01/05 05:07:06;;;;;;;120.00;28.65;;;0.60;99.90;;;;;;5008438;28;20053;-75
2021/01/05 05:09:45;;;;;;;98.75;27.10;;;0.50;99.90;;;;;;5026172;28;20157;-75
2021/01/05 05:12:48;;;;;;;100.75;27.13;;;0.50;99.90;;;;;;5043263;28;20071;-75
2021/01/05 05:15:39;;;;;;;98.75;25.42;;;0.70;99.90;;;;;;5044324;28;20126;-74
2021/01/05 05:18:20;;;;;;;86.50;25.10;;;0.60;99.90;;;;;;5045678;28;20056;-75
2021/01/05 05:21:07;;;;;;;81.03;22.45;;;0.60;99.90;;;;;;5023123;28;20048;-74
2021/01/05 05:23:37;;;;;;;75.35;25.90;;;0.60;99.90;;;;;;5049940;28;20137;-74
2021/01/05 05:26:27;;;;;;;77.53;24.85;;;0.40;99.90;;;;;;5045542;28;20448;-75
2021/01/05 05:28:56;;;;;;;74.55;24.52;;;0.40;99.90;;;;;;5044788;28;20528;-74
2021/01/05 05:31:26;;;;;;;92.03;26.48;;;0.50;99.90;;;;;;5046136;28;20728;-74
2021/01/05 05:34:07;;;;;;;85.30;27.70;;;0.50;99.90;;;;;;5045271;28;20124;-74
2021/01/05 05:37:06;;;;;;;110.53;27.60;;;0.60;99.90;;;;;;5038128;28;20072;-74
2021/01/05 05:39:57;;;;;;;119.20;27.83;;;0.70;99.90;;;;;;5033805;28;20572;-73
2021/01/05 05:42:50;;;;;;;96.78;27.48;;;0.60;99.90;;;;;;5036982;28;20069;-75
2021/01/05 05:45:31;;;;;;;92.43;24.95;;;0.60;99.90;;;;;;5043805;28;20572;-74
2021/01/05 05:48:00;;;;;;;87.50;25.52;;;0.50;99.90;;;;;;5020203;28;20049;-74
2021/01/05 05:50:50;;;;;;;69.57;23.75;;;0.60;99.90;;;;;;5035060;28;20045;-74
2021/01/05 05:53:22;;;;;;;88.07;26.30;;;0.60;99.90;;;;;;5002855;28;20505;-74
2021/01/05 05:56:01;;;;;;;77.75;26.10;;;0.60;99.90;;;;;;5011336;28;20065;-75
2021/01/05 05:58:38;;;;;;;66.47;23.77;;;0.70;99.90;;;;;;5045096;28;20049;-74
2021/01/05 06:01:10;;;;;;;72.22;24.00;;;0.70;99.90;;;;;;5027546;28;20060;-74
2021/01/05 06:03:36;;;;;;;77.07;25.25;;;0.80;99.90;;;;;;5010176;28;20063;-74
2021/01/05 06:06:05;;;;;;;72.60;25.52;;;0.70;99.90;;;;;;5043350;28;20128;-74
2021/01/05 06:08:31;;;;;;;63.78;25.30;;;0.70;99.90;;;;;;5041416;28;20133;-74
2021/01/05 06:10:57;;;;;;;68.65;25.95;;;0.60;99.90;;;;;;5046210;28;20056;-75
2021/01/05 06:13:24;;;;;;;66.88;23.92;;;0.50;99.90;;;;;;5027828;28;20048;-74
2021/01/05 06:15:50;;;;;;;67.93;26.50;;;0.60;99.90;;;;;;5026692;28;20045;-74
2021/01/05 06:18:18;;;;;;;77.20;25.77;;;0.50;99.90;;;;;;5027745;28;20084;-75
2021/01/05 06:20:46;;;;;;;77.22;25.48;;;0.60;99.90;;;;;;5036896;28;20053;-75
2021/01/05 06:23:12;;;;;;;78.28;28.33;;;0.70;99.90;;;;;;5034638;28;20056;-76
2021/01/05 06:25:39;;;;;;;78.07;28.25;;;0.70;99.90;;;;;;5038518;28;20486;-74
2021/01/05 06:28:06;;;;;;;66.55;26.00;;;0.80;99.90;;;;;;5045077;28;20053;-75
2021/01/05 06:30:32;;;;;;;70.47;26.48;;;0.90;99.90;;;;;;5043898;28;20041;-75
2021/01/05 06:32:59;;;;;;;88.00;29.02;;;0.70;99.90;;;;;;5044728;28;20127;-74
2021/01/05 06:35:26;;;;;;;79.35;27.38;;;0.70;99.90;;;;;;5027388;28;20545;-74
2021/01/05 06:37:53;;;;;;;81.75;25.75;;;0.60;99.90;;;;;;5035744;28;20641;-74
2021/01/05 06:40:26;;;;;;;76.22;27.98;;;0.60;99.90;;;;;;5043370;28;20107;-74
2021/01/05 06:42:54;;;;;;;98.03;29.58;;;0.60;99.90;;;;;;5027193;28;20111;-75
2021/01/05 06:45:30;;;;;;;86.72;27.88;;;0.60;99.90;;;;;;5043005;28;21340;-74
2021/01/05 06:47:58;;;;;;;78.05;26.83;;;0.60;99.90;;;;;;5045725;28;20059;-74
2021/01/05 06:50:28;;;;;;;74.38;25.33;;;0.50;99.90;;;;;;5040437;28;20151;-75
2021/01/05 06:52:54;;;;;;;74.65;28.50;;;0.60;99.90;;;;;;5026271;28;20405;-74
2021/01/05 06:55:22;;;;;;;84.65;28.33;;;0.70;99.90;;;;;;5060088;28;20147;-74
2021/01/05 06:57:48;;;;;;;81.38;27.85;;;0.60;99.90;;;;;;5025401;28;20053;-74
2021/01/05 07:00:24;;;;;;;78.00;28.15;;;0.60;99.90;;;;;;5025010;28;20054;-74
2021/01/05 07:02:52;;;;;;;84.57;28.65;;;0.70;99.90;;;;;;5022879;28;20157;-75
2021/01/05 07:05:19;;;;;;;83.05;27.77;;;0.60;99.90;;;;;;5025648;28;20053;-74
2021/01/05 07:07:46;;;;;;;79.57;27.40;;;0.60;99.90;;;;;;5035147;28;20041;-75
2021/01/05 07:10:15;;;;;;;79.43;29.00;;;0.60;99.90;;;;;;5043311;28;20590;-75
2021/01/05 07:12:42;;;;;;;83.55;26.27;;;0.70;99.90;;;;;;5027162;28;20636;-75
2021/01/05 07:15:10;;;;;;;78.25;26.42;;;0.70;99.90;;;;;;5042784;28;20076;-75
2021/01/05 07:17:37;;;;;;;90.93;25.70;;;0.70;99.90;;;;;;5040263;28;20146;-74
2021/01/05 07:20:08;;;;;;;88.93;27.55;;;0.70;99.90;;;;;;5026854;28;20111;-75
2021/01/05 07:22:35;;;;;;;82.20;24.88;;;0.50;99.90;;;;;;5043508;28;20344;-74
2021/01/05 07:25:02;;;;;;;82.35;29.52;;;0.50;99.90;;;;;;5043113;28;20073;-74
2021/01/05 07:27:29;;;;;;;94.07;26.77;;;0.50;99.90;;;;;;5043837;28;20428;-76
2021/01/05 07:29:56;;;;;;;92.22;28.33;;;0.60;99.90;;;;;;5043590;28;20053;-74
2021/01/05 07:32:22;;;;;;;96.90;27.67;;;0.50;99.90;;;;;;5043105;28;20077;-75
2021/01/05 07:34:48;;;;;;;100.93;28.80;;;0.60;99.90;;;;;;5025850;28;20072;-75
2021/01/05 07:37:25;;;;;;;85.63;27.50;;;0.60;99.90;;;;;;5037044;28;20047;-75
2021/01/05 07:39:51;;;;;;;114.80;32.60;;;0.60;99.90;;;;;;5036202;28;20063;-75
2021/01/05 07:42:28;;;;;;;103.40;28.45;;;0.80;99.90;;;;;;5030745;28;20052;-75
2021/01/05 07:44:56;;;;;;;83.57;26.20;;;0.70;99.90;;;;;;5037550;28;20056;-74
2021/01/05 07:47:28;;;;;;;86.93;27.35;;;0.70;99.90;;;;;;5042623;28;20073;-75
2021/01/05 07:49:54;;;;;;;93.63;28.42;;;0.60;99.90;;;;;;5044193;28;20399;-75
2021/01/05 07:52:32;;;;;;;99.07;28.10;;;0.60;99.90;;;;;;5042731;28;20045;-75
2021/01/05 07:54:59;;;;;;;105.07;28.10;;;0.70;99.90;;;;;;5042925;28;20060;-75
2021/01/05 07:57:26;;;;;;;86.32;26.58;;;0.80;99.90;;;;;;5025851;28;20111;-74
2021/01/05 07:59:53;;;;;;;100.15;28.83;;;0.70;99.90;;;;;;5023368;28;20469;-75
2021/01/05 08:02:19;;;;;;;101.57;27.65;;;0.60;99.90;;;;;;5022371;28;20046;-75
2021/01/05 08:04:46;;;;;;;98.85;27.35;;;0.70;99.90;;;;;;5007130;28;20144;-74
2021/01/05 08:07:13;;;;;;;82.43;26.60;;;0.60;99.90;;;;;;5033810;28;20451;-74
2021/01/05 08:09:41;;;;;;;87.30;29.25;;;0.60;99.90;;;;;;5042858;28;20060;-75
2021/01/05 08:12:20;;;;;;;83.63;25.65;;;0.60;99.90;;;;;;5026070;28;20049;-74
2021/01/05 08:14:47;;;;;;;82.00;25.38;;;0.50;99.90;;;;;;5025905;28;20041;-74
2021/01/05 08:17:14;;;;;;;87.07;26.00;;;0.50;99.90;;;;;;5058482;28;20140;-75
2021/01/05 08:19:45;;;;;;;80.55;24.33;;;0.60;99.90;;;;;;5035253;28;20239;-75
2021/01/05 08:22:13;;;;;;;99.72;29.88;;;0.60;99.90;;;;;;5017323;28;20053;-75
2021/01/05 08:24:40;;;;;;;67.40;24.88;;;0.60;99.90;;;;;;5038774;28;20132;-75
2021/01/05 08:27:07;;;;;;;69.50;24.92;;;0.60;99.90;;;;;;5025755;28;20198;-75
2021/01/05 08:29:34;;;;;;;68.47;25.48;;;0.70;99.90;;;;;;5042815;28;20049;-75
2021/01/05 08:32:00;;;;;;;57.40;23.58;;;0.80;99.90;;;;;;5041953;28;20041;-75
2021/01/05 08:34:28;;;;;;;62.85;25.92;;;0.80;99.90;;;;;;5042875;28;20045;-75
2021/01/05 08:36:54;;;;;;;70.95;27.52;;;0.70;99.90;;;;;;5033030;28;20049;-74
2021/01/05 08:39:20;;;;;;;61.60;24.85;;;0.70;99.90;;;;;;5041506;28;20064;-73
2021/01/05 08:41:52;;;;;;;60.60;22.58;;;0.60;99.90;;;;;;5032744;28;20508;-74
2021/01/05 08:44:19;;;;;;;63.63;25.10;;;0.60;99.90;;;;;;5022315;28;20091;-73
2021/01/05 08:46:45;;;;;;;66.75;24.52;;;0.50;99.90;;;;;;5020945;28;20164;-74
2021/01/05 08:49:11;;;;;;;51.03;23.15;;;0.60;99.90;;;;;;5005719;28;20042;-73
2021/01/05 08:51:38;;;;;;;54.83;23.58;;;0.60;99.90;;;;;;5041278;28;20506;-74
2021/01/05 08:54:04;;;;;;;55.65;24.30;;;0.60;99.90;;;;;;5044373;28;20060;-73
2021/01/05 08:56:35;;;;;;;38.38;19.10;;;0.60;99.90;;;;;;5033899;28;20502;-73
2021/01/05 08:59:01;;;;;;;43.05;20.58;;;0.60;99.90;;;;;;5036745;28;20128;-74
2021/01/05 09:01:27;;;;;;;42.70;19.90;;;0.60;99.90;;;;;;5013817;28;20052;-73
2021/01/05 09:03:54;;;;;;;57.13;23.38;;;0.50;99.90;;;;;;5035281;28;20072;-74
2021/01/05 09:06:24;;;;;;;55.40;24.27;;;0.50;99.90;;;;;;5038399;28;20045;-74
2021/01/05 09:08:52;;;;;;;65.47;25.02;;;0.50;99.90;;;;;;5044980;28;20048;-75
2021/01/05 09:11:22;;;;;;;56.70;22.92;;;0.60;99.90;;;;;;5047062;28;20059;-74
2021/01/05 09:13:48;;;;;;;55.75;24.38;;;0.60;99.90;;;;;;5046071;28;20081;-75
2021/01/05 09:16:27;;;;;;;59.50;24.23;;;0.60;99.90;;;;;;5046723;28;20057;-75
2021/01/05 09:18:54;;;;;;;57.53;23.52;;;0.70;99.90;;;;;;5046086;28;20091;-74
2021/01/05 09:21:23;;;;;;;50.72;23.25;;;0.70;99.90;;;;;;5045427;28;20505;-74
2021/01/05 09:23:51;;;;;;;52.10;24.98;;;0.80;99.90;;;;;;5043035;28;20128;-75
2021/01/05 09:26:24;;;;;;;45.78;22.48;;;0.80;99.90;;;;;;5045256;28;20053;-75
2021/01/05 09:28:51;;;;;;;51.33;24.23;;;0.80;99.90;;;;;;5047352;28;20053;-74
2021/01/05 09:31:18;;;;;;;45.75;23.45;;;0.80;99.90;;;;;;5045962;28;20647;-74
2021/01/05 09:33:45;;;;;;;48.90;23.15;;;0.80;99.90;;;;;;5046577;28;20057;-74
2021/01/05 09:36:12;;;;;;;45.20;22.90;;;1.00;99.90;;;;;;5042993;28;20050;-74
2021/01/05 09:38:40;;;;;;;49.33;23.80;;;1.00;99.90;;;;;;5041607;28;20049;-75
2021/01/05 09:41:18;;;;;;;53.33;29.67;;;1.10;99.90;;;;;;5045204;28;20452;-74
2021/01/05 09:43:44;;;;;;;53.67;25.55;;;1.20;99.90;;;;;;5028409;28;20057;-74
2021/01/05 09:46:11;;;;;;;55.85;25.85;;;1.30;99.90;;;;;;5044959;28;20506;-74
2021/01/05 09:48:37;;;;;;;48.30;24.40;;;1.20;99.90;;;;;;5046739;28;20091;-74
2021/01/05 09:51:04;;;;;;;50.60;24.52;;;1.20;99.90;;;;;;5030895;28;20125;-74
2021/01/05 09:53:30;;;;;;;51.97;25.63;;;1.30;99.90;;;;;;5037137;28;20044;-74
2021/01/05 09:55:57;;;;;;;42.20;23.60;;;1.40;99.90;;;;;;5040795;28;20530;-75
2021/01/05 09:58:23;;;;;;;43.70;24.02;;;1.10;99.90;;;;;;5009491;28;20152;-74
2021/01/05 10:00:49;;;;;;;36.10;19.65;;;1.10;99.90;;;;;;5009077;28;20060;-74
2021/01/05 10:03:16;;;;;;;41.42;22.05;;;1.00;99.90;;;;;;5034136;28;20060;-74
2021/01/05 10:05:42;;;;;;;42.22;23.17;;;1.00;99.90;;;;;;5044058;28;20627;-74
2021/01/05 10:08:08;;;;;;;37.80;21.60;;;1.10;99.90;;;;;;5038435;28;20055;-73
2021/01/05 10:10:34;;;;;;;36.20;21.33;;;1.00;99.90;;;;;;5045049;28;20052;-74
2021/01/05 10:13:01;;;;;;;34.75;20.75;;;0.90;99.90;;;;;;5046815;28;20055;-74
2021/01/05 10:15:27;;;;;;;36.53;20.27;;;0.90;99.90;;;;;;5048245;28;20557;-73
2021/01/05 10:17:54;;;;;;;32.00;20.95;;;1.00;99.90;;;;;;5045505;28;20095;-75
2021/01/05 10:20:21;;;;;;;32.88;21.48;;;1.10;99.90;;;;;;5045578;28;20052;-74
2021/01/05 10:22:48;;;;;;;35.45;20.60;;;1.20;99.90;;;;;;5028344;28;20048;-74
2021/01/05 10:25:16;;;;;;;34.38;21.90;;;1.00;99.90;;;;;;5044283;28;20145;-74
2021/01/05 10:27:42;;;;;;;32.53;21.05;;;1.10;99.90;;;;;;5044965;28;20099;-74
2021/01/05 10:30:13;;;;;;;36.63;21.35;;;1.10;99.90;;;;;;5046070;28;20057;-74
2021/01/05 10:32:42;;;;;;;36.63;20.02;;;1.10;99.90;;;;;;5044623;28;20111;-74
2021/01/05 10:35:09;;;;;;;38.38;21.35;;;1.10;99.90;;;;;;5027579;28;20126;-75
2021/01/05 10:37:35;;;;;;;34.70;20.65;;;1.10;99.90;;;;;;5019510;28;20134;-74
2021/01/05 10:40:06;;;;;;;35.95;22.63;;;1.10;99.90;;;;;;5045639;28;20065;-74
2021/01/05 10:42:33;;;;;;;39.95;22.67;;;1.30;99.90;;;;;;5031224;28;20540;-75
2021/01/05 10:44:59;;;;;;;41.45;23.40;;;1.20;99.90;;;;;;5024832;28;20034;-74
2021/01/05 10:47:26;;;;;;;39.42;22.10;;;1.20;99.90;;;;;;5025434;28;20050;-75
2021/01/05 10:49:52;;;;;;;37.15;20.63;;;1.30;99.90;;;;;;5027345;28;20057;-74
2021/01/05 10:52:19;;;;;;;24.80;16.23;;;1.30;99.90;;;;;;5019466;28;20114;-74
2021/01/05 10:54:45;;;;;;;34.22;22.48;;;1.10;99.90;;;;;;5000363;28;20099;-75
2021/01/05 10:57:11;;;;;;;24.00;15.82;;;1.00;99.90;;;;;;5024062;28;20073;-73
2021/01/05 10:59:41;;;;;;;36.35;21.77;;;1.00;99.90;;;;;;5025807;28;20053;-74
2021/01/05 11:02:09;;;;;;;34.33;19.40;;;1.00;99.90;;;;;;5040946;28;20231;-75
2021/01/05 11:04:37;;;;;;;33.78;19.00;;;1.00;99.90;;;;;;5037800;28;20048;-75
2021/01/05 11:07:11;;;;;;;36.05;20.48;;;1.10;99.90;;;;;;5040524;28;20068;-75
2021/01/05 11:09:38;;;;;;;33.35;21.60;;;1.10;99.90;;;;;;5040514;28;20131;-75
2021/01/05 11:12:10;;;;;;;32.97;20.98;;;1.10;99.90;;;;;;5043420;28;20059;-75
2021/01/05 11:14:41;;;;;;;31.65;18.42;;;1.20;99.90;;;;;;5045499;28;20065;-75
2021/01/05 11:17:08;;;;;;;36.65;23.38;;;1.20;99.90;;;;;;5023864;28;20474;-75
2021/01/05 11:19:36;;;;;;;36.92;22.92;;;1.10;99.90;;;;;;5043866;28;20051;-75
2021/01/05 11:22:04;;;;;;;36.97;23.38;;;1.20;99.90;;;;;;5045437;28;20579;-75
2021/01/05 11:24:36;;;;;;;31.65;20.70;;;1.10;99.90;;;;;;5027280;28;20255;-75
2021/01/05 11:27:03;;;;;;;32.67;19.92;;;1.20;99.90;;;;;;5042781;28;20396;-74
2021/01/05 11:29:30;;;;;;;33.83;21.90;;;1.30;99.90;;;;;;5045685;28;20037;-75
2021/01/05 11:32:03;;;;;;;39.22;21.13;;;1.30;99.90;;;;;;5027061;28;20122;-74
2021/01/05 11:34:30;;;;;;;30.88;20.20;;;1.30;99.90;;;;;;5041009;28;20124;-74
2021/01/05 11:37:17;;;;;;;29.83;19.73;;;1.40;99.90;;;;;;5040083;28;20425;-74
2021/01/05 11:39:48;;;;;;;25.38;19.30;;;1.30;99.90;;;;;;5018788;28;20136;-74
2021/01/05 11:42:18;;;;;;;28.23;19.88;;;1.30;99.90;;;;;;5033619;28;20063;-74
2021/01/05 11:44:45;;;;;;;30.35;20.65;;;1.20;99.90;;;;;;5024683;28;20466;-74
2021/01/05 11:47:13;;;;;;;27.08;19.80;;;1.20;99.90;;;;;;5032361;28;20700;-74
2021/01/05 11:49:40;;;;;;;28.55;18.23;;;1.40;99.90;;;;;;5041673;28;20037;-74
2021/01/05 11:52:06;;;;;;;26.67;18.05;;;1.20;99.90;;;;;;5025785;28;20042;-74
2021/01/05 11:54:32;;;;;;;27.75;19.15;;;1.20;99.90;;;;;;5025452;28;20063;-73
2021/01/05 11:56:59;;;;;;;28.95;19.55;;;1.30;99.90;;;;;;5037197;28;20061;-74
2021/01/05 11:59:28;;;;;;;25.80;19.40;;;1.40;99.90;;;;;;5026993;28;20057;-74
2021/01/05 12:01:55;;;;;;;30.63;19.83;;;1.30;99.90;;;;;;5026318;28;20061;-74
2021/01/05 12:04:21;;;;;;;26.85;18.75;;;1.20;99.90;;;;;;5041844;28;20045;-74
2021/01/05 12:06:50;;;;;;;50.60;30.17;;;1.10;99.90;;;;;;5034174;28;20620;-74
2021/01/05 12:09:18;;;;;;;39.45;23.83;;;1.10;99.90;;;;;;5044758;28;20063;-73
2021/01/05 12:11:44;;;;;;;38.65;24.15;;;1.20;99.90;;;;;;5040598;28;20057;-73
2021/01/05 12:14:12;;;;;;;29.13;19.90;;;1.10;99.90;;;;;;5036939;28;20104;-74
2021/01/05 12:16:45;;;;;;;23.65;18.38;;;1.10;99.90;;;;;;5041772;28;20064;-73
2021/01/05 12:19:19;;;;;;;31.55;22.35;;;1.20;99.90;;;;;;5023187;28;20434;-74
2021/01/05 12:21:50;;;;;;;28.75;19.27;;;1.10;99.90;;;;;;5007142;28;20140;-74
2021/01/05 12:24:22;;;;;;;28.17;18.60;;;1.30;99.90;;;;;;5024615;28;20080;-74
2021/01/05 12:26:48;;;;;;;30.40;18.10;;;1.20;99.90;;;;;;5042099;28;20053;-74
2021/01/05 12:29:22;;;;;;;28.70;18.98;;;1.20;99.90;;;;;;5042672;28;20470;-75
2021/01/05 12:31:51;;;;;;;22.50;15.43;;;1.20;99.90;;;;;;5042770;28;20139;-74
2021/01/05 12:34:20;;;;;;;28.70;17.75;;;1.20;99.90;;;;;;5023508;28;20057;-75
2021/01/05 12:36:47;;;;;;;22.20;14.15;;;1.10;99.90;;;;;;5030135;28;20077;-74
2021/01/05 12:39:21;;;;;;;25.42;15.95;;;1.00;99.90;;;;;;5044628;28;20149;-74
2021/01/05 12:41:48;;;;;;;25.70;15.23;;;1.00;99.90;;;;;;5046841;28;20049;-73
2021/01/05 12:44:17;;;;;;;27.48;17.40;;;1.00;99.90;;;;;;5046485;28;20102;-74
2021/01/05 12:46:44;;;;;;;28.38;18.23;;;1.10;99.90;;;;;;5046248;28;20045;-74
2021/01/05 12:49:12;;;;;;;25.30;15.73;;;1.10;99.90;;;;;;5048271;28;20049;-74
2021/01/05 12:51:42;;;;;;;23.70;13.82;;;1.10;99.90;;;;;;5027102;28;20065;-74
2021/01/05 12:54:12;;;;;;;24.35;15.65;;;1.00;99.90;;;;;;5036448;28;20057;-74
2021/01/05 12:56:58;;;;;;;23.25;14.77;;;1.00;99.90;;;;;;5034276;28;20053;-74
2021/01/05 12:59:24;;;;;;;22.75;13.95;;;0.90;99.90;;;;;;5025924;28;20228;-75
2021/01/05 13:01:56;;;;;;;19.70;13.52;;;1.00;99.90;;;;;;5026287;28;20159;-75
2021/01/05 13:04:23;;;;;;;19.73;11.80;;;0.90;99.90;;;;;;5035886;28;20053;-75